Time;durP1;ratioP1;P1;durP2;ratioP2;P2;SDS_P1;SDS_P2;PMS_P1;PMS_P2;Temp;Humidity;BMP_temperature;BMP_pressure;BME280_temperature;BME280_humidity;BME280_pressure;Samples;Min_cycle;Max_cycle;Signal;HPM_P1;HPM_P2
2023/02/15 00:00:01;;;;;;;2.3;2.3;;;;;;;3.9;100.0;102700;;;;
2023/02/15 00:44:00;;;;;;;2.5;2.5;;;;;;;3.4;100.0;102660;;;;
2023/02/15 00:45:00;;;;;;;2.5;2.5;;;;;;;3.4;100.0;102660;;;;
2023/02/15 00:46:01;;;;;;;2.5;2.5;;;;;;;3.4;100.0;102660;;;;
2023/02/15 00:47:00;;;;;;;2.5;2.5;;;;;;;3.4;100.0;102660;;;;
2023/02/15 00:48:00;;;;;;;2.5;2.5;;;;;;;3.4;100.0;102660;;;;
2023/02/15 00:49:00;;;;;;;2.5;2.5;;;;;;;3.3;100.0;102660;;;;
2023/02/15 00:50:00;;;;;;;2.5;2.5;;;;;;;3.3;100.0;102660;;;;
2023/02/15 00:51:01;;;;;;;2.5;2.4;;;;;;;3.4;100.0;102660;;;;
2023/02/15 00:52:00;;;;;;;2.5;2.4;;;;;;;3.4;100.0;102660;;;;
2023/02/15 00:53:00;;;;;;;2.5;2.4;;;;;;;3.3;100.0;102660;;;;
2023/02/15 00:54:00;;;;;;;2.5;2.4;;;;;;;3.3;100.0;102660;;;;
2023/02/15 00:55:00;;;;;;;2.5;2.4;;;;;;;3.3;100.0;102650;;;;
2023/02/15 00:56:01;;;;;;;2.5;2.4;;;;;;;3.3;100.0;102650;;;;
2023/02/15 00:57:00;;;;;;;2.5;2.4;;;;;;;3.3;100.0;102650;;;;
2023/02/15 00:58:00;;;;;;;2.5;2.4;;;;;;;3.3;100.0;102650;;;;
2023/02/15 00:59:00;;;;;;;2.5;2.4;;;;;;;3.2;100.0;102650;;;;
2023/02/15 01:00:00;;;;;;;2.5;2.4;;;;;;;3.2;100.0;102650;;;;
2023/02/15 01:01:08;;;;;;;2.5;2.4;;;;;;;3.2;100.0;102650;;;;
2023/02/15 01:02:00;;;;;;;2.5;2.4;;;;;;;3.2;100.0;102650;;;;
2023/02/15 01:03:00;;;;;;;2.5;2.4;;;;;;;3.2;100.0;102650;;;;
2023/02/15 01:04:01;;;;;;;2.5;2.4;;;;;;;3.2;100.0;102650;;;;
2023/02/15 01:05:00;;;;;;;2.5;2.4;;;;;;;3.2;100.0;102640;;;;
2023/02/15 01:06:01;;;;;;;2.5;2.4;;;;;;;3.2;100.0;102640;;;;
2023/02/15 01:07:01;;;;;;;2.5;2.4;;;;;;;3.2;100.0;102640;;;;
2023/02/15 01:08:00;;;;;;;2.5;2.4;;;;;;;3.2;100.0;102640;;;;
2023/02/15 01:09:00;;;;;;;2.5;2.4;;;;;;;3.2;100.0;102640;;;;
2023/02/15 01:10:00;;;;;;;2.5;2.4;;;;;;;3.2;100.0;102640;;;;
2023/02/15 01:11:09;;;;;;;2.4;2.4;;;;;;;3.2;100.0;102640;;;;
2023/02/15 01:12:00;;;;;;;2.4;2.4;;;;;;;3.2;100.0;102640;;;;
2023/02/15 01:13:00;;;;;;;2.4;2.4;;;;;;;3.1;100.0;102640;;;;
2023/02/15 01:14:00;;;;;;;2.4;2.4;;;;;;;3.1;100.0;102640;;;;
2023/02/15 01:15:00;;;;;;;2.4;2.4;;;;;;;3.1;100.0;102640;;;;
2023/02/15 01:16:01;;;;;;;2.4;2.4;;;;;;;3.1;100.0;102640;;;;
2023/02/15 01:17:00;;;;;;;2.4;2.4;;;;;;;3.1;100.0;102640;;;;
2023/02/15 01:18:00;;;;;;;2.4;2.4;;;;;;;3.1;100.0;102640;;;;
2023/02/15 01:19:02;;;;;;;2.4;2.4;;;;;;;3.1;100.0;102630;;;;
2023/02/15 01:20:00;;;;;;;2.4;2.4;;;;;;;3.1;100.0;102630;;;;
2023/02/15 01:21:00;;;;;;;2.4;2.4;;;;;;;3.2;100.0;102630;;;;
2023/02/15 01:22:00;;;;;;;2.4;2.4;;;;;;;3.2;100.0;102630;;;;
2023/02/15 01:23:00;;;;;;;2.4;2.4;;;;;;;3.0;100.0;102630;;;;
2023/02/15 01:24:01;;;;;;;2.4;2.4;;;;;;;3.0;100.0;102630;;;;
2023/02/15 01:25:00;;;;;;;2.4;2.4;;;;;;;3.1;100.0;102620;;;;
2023/02/15 01:26:02;;;;;;;2.4;2.4;;;;;;;3.1;100.0;102620;;;;
2023/02/15 01:27:00;;;;;;;2.4;2.4;;;;;;;3.1;100.0;102620;;;;
2023/02/15 01:28:00;;;;;;;2.4;2.4;;;;;;;3.1;100.0;102620;;;;
2023/02/15 01:29:00;;;;;;;2.4;2.4;;;;;;;3.2;100.0;102620;;;;
2023/02/15 01:30:00;;;;;;;2.4;2.4;;;;;;;3.2;100.0;102620;;;;
2023/02/15 01:31:04;;;;;;;2.7;2.6;;;;;;;3.2;100.0;102620;;;;
2023/02/15 01:32:00;;;;;;;2.7;2.6;;;;;;;3.2;100.0;102620;;;;
2023/02/15 01:33:00;;;;;;;2.7;2.6;;;;;;;3.1;100.0;102620;;;;
2023/02/15 01:34:00;;;;;;;2.7;2.6;;;;;;;3.1;100.0;102620;;;;
2023/02/15 01:35:00;;;;;;;2.7;2.6;;;;;;;3.1;100.0;102620;;;;
2023/02/15 01:36:01;;;;;;;2.7;2.6;;;;;;;3.1;100.0;102620;;;;
2023/02/15 01:37:00;;;;;;;2.7;2.6;;;;;;;3.1;100.0;102610;;;;
2023/02/15 01:38:00;;;;;;;2.7;2.6;;;;;;;3.1;100.0;102610;;;;
2023/02/15 01:39:00;;;;;;;2.7;2.6;;;;;;;3.1;100.0;102620;;;;
2023/02/15 01:40:01;;;;;;;2.7;2.6;;;;;;;3.1;100.0;102620;;;;
2023/02/15 01:42:00;;;;;;;2.7;2.6;;;;;;;3.1;100.0;102610;;;;
2023/02/15 01:43:00;;;;;;;2.7;2.6;;;;;;;3.0;100.0;102620;;;;
2023/02/15 01:44:01;;;;;;;2.7;2.6;;;;;;;3.0;100.0;102620;;;;
2023/02/15 01:45:04;;;;;;;2.7;2.6;;;;;;;3.0;100.0;102620;;;;
2023/02/15 01:46:01;;;;;;;2.7;2.6;;;;;;;3.0;100.0;102620;;;;
2023/02/15 01:47:00;;;;;;;2.7;2.6;;;;;;;3.0;100.0;102620;;;;
2023/02/15 01:48:05;;;;;;;2.7;2.6;;;;;;;3.0;100.0;102620;;;;
2023/02/15 01:49:03;;;;;;;2.7;2.6;;;;;;;3.0;100.0;102620;;;;
2023/02/15 01:50:04;;;;;;;2.7;2.6;;;;;;;3.0;100.0;102620;;;;
2023/02/15 01:51:02;;;;;;;2.3;2.3;;;;;;;3.0;100.0;102620;;;;
2023/02/15 01:52:01;;;;;;;2.3;2.3;;;;;;;3.0;100.0;102620;;;;
2023/02/15 01:53:03;;;;;;;2.3;2.3;;;;;;;2.9;100.0;102610;;;;
2023/02/15 01:54:02;;;;;;;2.3;2.3;;;;;;;2.9;100.0;102610;;;;
2023/02/15 01:55:02;;;;;;;2.3;2.3;;;;;;;3.0;100.0;102620;;;;
2023/02/15 01:56:04;;;;;;;2.3;2.3;;;;;;;3.0;100.0;102620;;;;
2023/02/15 01:57:08;;;;;;;2.3;2.3;;;;;;;3.0;100.0;102610;;;;
2023/02/15 01:58:00;;;;;;;2.3;2.3;;;;;;;3.0;100.0;102610;;;;
2023/02/15 01:59:10;;;;;;;2.3;2.3;;;;;;;2.9;100.0;102610;;;;
2023/02/15 02:00:02;;;;;;;2.3;2.3;;;;;;;2.9;100.0;102610;;;;
2023/02/15 02:01:03;;;;;;;2.3;2.3;;;;;;;2.8;100.0;102610;;;;
2023/02/15 02:02:01;;;;;;;2.3;2.3;;;;;;;2.8;100.0;102610;;;;
2023/02/15 02:03:01;;;;;;;2.3;2.3;;;;;;;2.9;100.0;102610;;;;
2023/02/15 02:04:10;;;;;;;2.3;2.3;;;;;;;2.9;100.0;102610;;;;
2023/02/15 02:05:06;;;;;;;2.3;2.3;;;;;;;2.8;100.0;102610;;;;
2023/02/15 02:06:01;;;;;;;2.3;2.3;;;;;;;2.8;100.0;102610;;;;
2023/02/15 02:07:00;;;;;;;2.3;2.3;;;;;;;2.9;100.0;102610;;;;
2023/02/15 02:08:01;;;;;;;2.3;2.3;;;;;;;2.9;100.0;102610;;;;
2023/02/15 02:09:00;;;;;;;2.3;2.3;;;;;;;2.8;100.0;102600;;;;
2023/02/15 02:10:01;;;;;;;2.3;2.3;;;;;;;2.8;100.0;102600;;;;
2023/02/15 02:11:00;;;;;;;2.8;2.7;;;;;;;2.9;100.0;102600;;;;
2023/02/15 02:12:01;;;;;;;2.8;2.7;;;;;;;2.9;100.0;102600;;;;
2023/02/15 02:13:03;;;;;;;2.8;2.7;;;;;;;2.9;100.0;102590;;;;
2023/02/15 02:14:00;;;;;;;2.8;2.7;;;;;;;2.9;100.0;102590;;;;
2023/02/15 02:15:00;;;;;;;2.8;2.7;;;;;;;2.8;100.0;102590;;;;
2023/02/15 02:16:10;;;;;;;2.8;2.7;;;;;;;2.8;100.0;102590;;;;
2023/02/15 02:17:10;;;;;;;2.8;2.7;;;;;;;2.8;100.0;102590;;;;
2023/02/15 02:18:00;;;;;;;2.8;2.7;;;;;;;2.8;100.0;102590;;;;
2023/02/15 02:19:11;;;;;;;2.8;2.7;;;;;;;2.8;100.0;102590;;;;
2023/02/15 02:20:00;;;;;;;2.8;2.7;;;;;;;2.8;100.0;102590;;;;
2023/02/15 02:21:10;;;;;;;2.8;2.7;;;;;;;2.8;100.0;102580;;;;
2023/02/15 02:22:10;;;;;;;2.8;2.7;;;;;;;2.8;100.0;102580;;;;
2023/02/15 02:23:10;;;;;;;2.8;2.7;;;;;;;2.8;100.0;102590;;;;
2023/02/15 02:24:10;;;;;;;2.8;2.7;;;;;;;2.8;100.0;102590;;;;
2023/02/15 02:25:10;;;;;;;2.8;2.7;;;;;;;2.8;100.0;102590;;;;
2023/02/15 02:26:10;;;;;;;2.8;2.7;;;;;;;2.8;100.0;102590;;;;
2023/02/15 02:27:10;;;;;;;2.8;2.7;;;;;;;2.7;100.0;102590;;;;
2023/02/15 02:28:00;;;;;;;2.8;2.7;;;;;;;2.7;100.0;102590;;;;
2023/02/15 02:29:10;;;;;;;2.8;2.7;;;;;;;2.7;100.0;102590;;;;
2023/02/15 02:30:10;;;;;;;2.8;2.7;;;;;;;2.7;100.0;102590;;;;
2023/02/15 02:31:10;;;;;;;2.8;2.7;;;;;;;2.7;100.0;102580;;;;
2023/02/15 02:32:00;;;;;;;2.8;2.7;;;;;;;2.7;100.0;102580;;;;
2023/02/15 02:33:03;;;;;;;2.8;2.7;;;;;;;2.7;100.0;102580;;;;
2023/02/15 02:34:05;;;;;;;2.8;2.7;;;;;;;2.7;100.0;102580;;;;
2023/02/15 02:35:08;;;;;;;2.8;2.7;;;;;;;2.7;100.0;102580;;;;
2023/02/15 02:36:06;;;;;;;2.8;2.7;;;;;;;2.7;100.0;102580;;;;
2023/02/15 02:37:09;;;;;;;2.8;2.7;;;;;;;2.7;100.0;102590;;;;
2023/02/15 02:38:01;;;;;;;2.8;2.7;;;;;;;2.7;100.0;102590;;;;
2023/02/15 02:39:10;;;;;;;2.8;2.7;;;;;;;2.6;100.0;102590;;;;
2023/02/15 02:40:10;;;;;;;2.8;2.7;;;;;;;2.6;100.0;102590;;;;
2023/02/15 02:41:07;;;;;;;2.8;2.7;;;;;;;2.7;100.0;102580;;;;
2023/02/15 02:42:06;;;;;;;2.8;2.7;;;;;;;2.7;100.0;102580;;;;
2023/02/15 02:43:05;;;;;;;2.8;2.7;;;;;;;2.7;100.0;102580;;;;
2023/02/15 02:44:07;;;;;;;2.8;2.7;;;;;;;2.7;100.0;102580;;;;
2023/02/15 02:45:03;;;;;;;2.8;2.7;;;;;;;2.6;100.0;102570;;;;
2023/02/15 02:46:05;;;;;;;2.8;2.7;;;;;;;2.6;100.0;102570;;;;
2023/02/15 02:47:10;;;;;;;2.8;2.7;;;;;;;2.5;100.0;102570;;;;
2023/02/15 02:48:04;;;;;;;2.8;2.7;;;;;;;2.5;100.0;102570;;;;
2023/02/15 02:49:01;;;;;;;2.8;2.7;;;;;;;2.5;100.0;102570;;;;
2023/02/15 02:50:01;;;;;;;2.8;2.7;;;;;;;2.5;100.0;102570;;;;
2023/02/15 02:51:00;;;;;;;2.8;2.7;;;;;;;2.4;100.0;102570;;;;
2023/02/15 02:52:01;;;;;;;2.8;2.7;;;;;;;2.4;100.0;102570;;;;
2023/02/15 02:53:00;;;;;;;2.8;2.7;;;;;;;2.3;100.0;102570;;;;
2023/02/15 02:54:03;;;;;;;2.8;2.7;;;;;;;2.3;100.0;102570;;;;
2023/02/15 02:55:01;;;;;;;2.8;2.7;;;;;;;2.2;100.0;102560;;;;
2023/02/15 02:56:06;;;;;;;2.8;2.7;;;;;;;2.2;100.0;102560;;;;
2023/02/15 02:57:03;;;;;;;2.8;2.7;;;;;;;2.3;100.0;102560;;;;
2023/02/15 02:58:10;;;;;;;2.8;2.7;;;;;;;2.3;100.0;102560;;;;
2023/02/15 02:59:00;;;;;;;2.8;2.7;;;;;;;2.3;100.0;102560;;;;
2023/02/15 03:00:02;;;;;;;2.8;2.7;;;;;;;2.3;100.0;102560;;;;
2023/02/15 03:01:05;;;;;;;2.8;2.7;;;;;;;2.2;100.0;102560;;;;
2023/02/15 03:02:07;;;;;;;2.8;2.7;;;;;;;2.2;100.0;102560;;;;
2023/02/15 03:03:05;;;;;;;2.8;2.7;;;;;;;2.2;100.0;102560;;;;
2023/02/15 03:04:05;;;;;;;2.8;2.7;;;;;;;2.2;100.0;102560;;;;
2023/02/15 03:05:03;;;;;;;2.8;2.7;;;;;;;2.2;100.0;102560;;;;
2023/02/15 03:06:03;;;;;;;2.8;2.7;;;;;;;2.2;100.0;102560;;;;
2023/02/15 03:07:01;;;;;;;2.8;2.7;;;;;;;2.2;100.0;102550;;;;
2023/02/15 03:08:05;;;;;;;2.8;2.7;;;;;;;2.2;100.0;102550;;;;
2023/02/15 03:09:06;;;;;;;2.8;2.7;;;;;;;2.3;100.0;102550;;;;
2023/02/15 03:10:01;;;;;;;2.8;2.7;;;;;;;2.3;100.0;102550;;;;
2023/02/15 03:11:01;;;;;;;2.4;2.4;;;;;;;2.2;100.0;102560;;;;
2023/02/15 03:12:01;;;;;;;2.4;2.4;;;;;;;2.2;100.0;102560;;;;
2023/02/15 03:13:00;;;;;;;2.4;2.4;;;;;;;2.1;100.0;102560;;;;
2023/02/15 03:14:00;;;;;;;2.4;2.4;;;;;;;2.1;100.0;102560;;;;
2023/02/15 03:15:10;;;;;;;2.4;2.4;;;;;;;2.2;100.0;102550;;;;
2023/02/15 03:17:01;;;;;;;2.4;2.4;;;;;;;2.4;100.0;102550;;;;
2023/02/15 03:18:02;;;;;;;2.4;2.4;;;;;;;2.4;100.0;102550;;;;
2023/02/15 03:19:02;;;;;;;2.4;2.4;;;;;;;2.3;100.0;102540;;;;
2023/02/15 03:20:04;;;;;;;2.4;2.4;;;;;;;2.3;100.0;102540;;;;
2023/02/15 03:21:01;;;;;;;2.4;2.4;;;;;;;2.1;100.0;102540;;;;
2023/02/15 03:22:08;;;;;;;2.4;2.4;;;;;;;2.1;100.0;102540;;;;
2023/02/15 03:23:04;;;;;;;2.4;2.4;;;;;;;2.0;100.0;102540;;;;
2023/02/15 03:24:04;;;;;;;2.4;2.4;;;;;;;2.0;100.0;102540;;;;
2023/02/15 03:25:01;;;;;;;2.4;2.4;;;;;;;2.0;100.0;102540;;;;
2023/02/15 03:26:02;;;;;;;2.4;2.4;;;;;;;2.0;100.0;102540;;;;
2023/02/15 03:27:02;;;;;;;2.4;2.4;;;;;;;2.2;100.0;102550;;;;
2023/02/15 03:28:06;;;;;;;2.4;2.4;;;;;;;2.2;100.0;102550;;;;
2023/02/15 03:29:01;;;;;;;2.4;2.4;;;;;;;2.2;100.0;102540;;;;
2023/02/15 03:30:02;;;;;;;2.4;2.4;;;;;;;2.2;100.0;102540;;;;
2023/02/15 03:31:02;;;;;;;3.0;2.9;;;;;;;2.3;100.0;102530;;;;
2023/02/15 03:32:03;;;;;;;3.0;2.9;;;;;;;2.3;100.0;102530;;;;
2023/02/15 03:33:00;;;;;;;3.0;2.9;;;;;;;2.2;100.0;102540;;;;
2023/02/15 03:34:03;;;;;;;3.0;2.9;;;;;;;2.2;100.0;102540;;;;
2023/02/15 03:35:00;;;;;;;3.0;2.9;;;;;;;2.1;100.0;102530;;;;
2023/02/15 03:36:04;;;;;;;3.0;2.9;;;;;;;2.1;100.0;102530;;;;
2023/02/15 03:37:08;;;;;;;3.0;2.9;;;;;;;2.1;100.0;102530;;;;
2023/02/15 03:38:01;;;;;;;3.0;2.9;;;;;;;2.1;100.0;102530;;;;
2023/02/15 03:39:06;;;;;;;3.0;2.9;;;;;;;2.0;100.0;102530;;;;
2023/02/15 03:42:10;;;;;;;3.0;2.9;;;;;;;2.1;100.0;102530;;;;
2023/02/15 03:43:10;;;;;;;3.0;2.9;;;;;;;2.0;100.0;102530;;;;
2023/02/15 03:44:06;;;;;;;3.0;2.9;;;;;;;2.0;100.0;102530;;;;
2023/02/15 03:45:03;;;;;;;3.0;2.9;;;;;;;2.0;100.0;102520;;;;
2023/02/15 03:46:06;;;;;;;3.0;2.9;;;;;;;2.0;100.0;102520;;;;
2023/02/15 03:47:04;;;;;;;3.0;2.9;;;;;;;2.0;100.0;102520;;;;
2023/02/15 03:48:01;;;;;;;3.0;2.9;;;;;;;2.0;100.0;102520;;;;
2023/02/15 03:49:03;;;;;;;3.0;2.9;;;;;;;2.0;100.0;102520;;;;
2023/02/15 03:50:00;;;;;;;3.0;2.9;;;;;;;2.0;100.0;102520;;;;
2023/02/15 03:52:02;;;;;;;2.7;2.6;;;;;;;1.9;100.0;102510;;;;
2023/02/15 03:53:02;;;;;;;2.7;2.6;;;;;;;1.9;100.0;102520;;;;
2023/02/15 03:54:02;;;;;;;2.7;2.6;;;;;;;1.9;100.0;102520;;;;
2023/02/15 03:55:00;;;;;;;2.7;2.6;;;;;;;1.9;100.0;102510;;;;
2023/02/15 03:56:01;;;;;;;2.7;2.6;;;;;;;1.9;100.0;102510;;;;
2023/02/15 04:02:10;;;;;;;2.7;2.6;;;;;;;2.0;100.0;102520;;;;
2023/02/15 04:03:00;;;;;;;2.7;2.6;;;;;;;1.9;100.0;102510;;;;
2023/02/15 04:04:04;;;;;;;2.7;2.6;;;;;;;1.9;100.0;102510;;;;
2023/02/15 04:05:00;;;;;;;2.7;2.6;;;;;;;2.0;100.0;102510;;;;
2023/02/15 04:06:02;;;;;;;2.7;2.6;;;;;;;2.0;100.0;102510;;;;
2023/02/15 04:07:00;;;;;;;2.7;2.6;;;;;;;2.0;100.0;102510;;;;
2023/02/15 04:08:00;;;;;;;2.7;2.6;;;;;;;2.0;100.0;102510;;;;
2023/02/15 04:11:00;;;;;;;3.0;2.9;;;;;;;2.0;100.0;102510;;;;
2023/02/15 04:12:00;;;;;;;3.0;2.9;;;;;;;2.0;100.0;102510;;;;
2023/02/15 04:13:00;;;;;;;3.0;2.9;;;;;;;2.0;100.0;102510;;;;
2023/02/15 04:16:02;;;;;;;3.0;2.9;;;;;;;2.0;100.0;102510;;;;
2023/02/15 04:16:04;;;;;;;3.0;2.9;;;;;;;2.0;100.0;102510;;;;
2023/02/15 04:17:00;;;;;;;3.0;2.9;;;;;;;1.9;100.0;102510;;;;
2023/02/15 04:18:02;;;;;;;3.0;2.9;;;;;;;1.9;100.0;102510;;;;
2023/02/15 04:26:03;;;;;;;3.0;2.9;;;;;;;1.9;100.0;102520;;;;
2023/02/15 04:27:00;;;;;;;3.0;2.9;;;;;;;1.9;100.0;102520;;;;
2023/02/15 04:28:00;;;;;;;3.0;2.9;;;;;;;1.9;100.0;102520;;;;
2023/02/15 04:29:00;;;;;;;3.0;2.9;;;;;;;1.9;100.0;102520;;;;
2023/02/15 04:30:00;;;;;;;3.0;2.9;;;;;;;1.9;100.0;102520;;;;
2023/02/15 04:31:00;;;;;;;3.0;2.9;;;;;;;2.0;100.0;102510;;;;
2023/02/15 04:32:01;;;;;;;3.0;2.9;;;;;;;2.0;100.0;102510;;;;
2023/02/15 04:33:00;;;;;;;3.0;2.9;;;;;;;1.9;100.0;102510;;;;
2023/02/15 04:34:00;;;;;;;3.0;2.9;;;;;;;1.9;100.0;102510;;;;
2023/02/15 04:35:00;;;;;;;3.0;2.9;;;;;;;1.9;100.0;102510;;;;
2023/02/15 04:36:01;;;;;;;3.0;2.9;;;;;;;1.9;100.0;102510;;;;
2023/02/15 04:37:00;;;;;;;3.0;2.9;;;;;;;1.8;100.0;102510;;;;
2023/02/15 04:38:00;;;;;;;3.0;2.9;;;;;;;1.8;100.0;102510;;;;
2023/02/15 04:39:00;;;;;;;3.0;2.9;;;;;;;1.8;100.0;102510;;;;
2023/02/15 04:40:00;;;;;;;3.0;2.9;;;;;;;1.8;100.0;102510;;;;
2023/02/15 04:41:00;;;;;;;3.0;2.9;;;;;;;1.8;100.0;102510;;;;
2023/02/15 04:42:00;;;;;;;3.0;2.9;;;;;;;1.8;100.0;102510;;;;
2023/02/15 04:43:00;;;;;;;3.0;2.9;;;;;;;1.8;100.0;102510;;;;
2023/02/15 04:44:00;;;;;;;3.0;2.9;;;;;;;1.8;100.0;102510;;;;
2023/02/15 04:45:00;;;;;;;3.0;2.9;;;;;;;1.8;100.0;102500;;;;
2023/02/15 04:46:01;;;;;;;3.0;2.9;;;;;;;1.8;100.0;102500;;;;
2023/02/15 04:47:00;;;;;;;3.0;2.9;;;;;;;1.8;100.0;102500;;;;
2023/02/15 04:48:00;;;;;;;3.0;2.9;;;;;;;1.8;100.0;102500;;;;
2023/02/15 04:49:00;;;;;;;3.0;2.9;;;;;;;1.8;100.0;102500;;;;
2023/02/15 04:50:00;;;;;;;3.1;3.0;;;;;;;1.8;100.0;102500;;;;
2023/02/15 04:51:04;;;;;;;3.1;3.0;;;;;;;1.7;100.0;102500;;;;
2023/02/15 04:52:00;;;;;;;3.1;3.0;;;;;;;1.7;100.0;102500;;;;
2023/02/15 04:53:00;;;;;;;3.1;3.0;;;;;;;1.7;100.0;102500;;;;
2023/02/15 04:54:00;;;;;;;3.1;3.0;;;;;;;1.7;100.0;102500;;;;
2023/02/15 04:55:00;;;;;;;3.1;3.0;;;;;;;1.7;100.0;102500;;;;
2023/02/15 04:56:00;;;;;;;3.1;3.0;;;;;;;1.7;100.0;102500;;;;
2023/02/15 04:57:00;;;;;;;3.1;3.0;;;;;;;1.7;100.0;102500;;;;
2023/02/15 04:58:00;;;;;;;3.1;3.0;;;;;;;1.7;100.0;102500;;;;
2023/02/15 04:59:00;;;;;;;3.1;3.0;;;;;;;1.7;100.0;102490;;;;
2023/02/15 05:00:00;;;;;;;3.1;3.0;;;;;;;1.7;100.0;102490;;;;
2023/02/15 05:01:00;;;;;;;3.1;3.0;;;;;;;1.7;100.0;102490;;;;
2023/02/15 05:02:00;;;;;;;3.1;3.0;;;;;;;1.7;100.0;102490;;;;
2023/02/15 05:03:00;;;;;;;3.1;3.0;;;;;;;1.6;100.0;102490;;;;
2023/02/15 05:04:00;;;;;;;3.1;3.0;;;;;;;1.6;100.0;102490;;;;
2023/02/15 05:05:00;;;;;;;3.1;3.0;;;;;;;1.6;100.0;102490;;;;
2023/02/15 05:06:01;;;;;;;3.1;3.0;;;;;;;1.6;100.0;102490;;;;
2023/02/15 05:07:00;;;;;;;3.1;3.0;;;;;;;1.6;100.0;102480;;;;
2023/02/15 05:08:00;;;;;;;3.1;3.0;;;;;;;1.6;100.0;102480;;;;
2023/02/15 05:09:00;;;;;;;3.1;3.0;;;;;;;1.6;100.0;102480;;;;
2023/02/15 05:10:00;;;;;;;3.2;3.1;;;;;;;1.6;100.0;102480;;;;
2023/02/15 05:11:00;;;;;;;3.2;3.1;;;;;;;1.5;100.0;102480;;;;
2023/02/15 05:12:00;;;;;;;3.2;3.1;;;;;;;1.5;100.0;102480;;;;
2023/02/15 05:13:00;;;;;;;3.2;3.1;;;;;;;1.5;100.0;102490;;;;
2023/02/15 05:14:00;;;;;;;3.2;3.1;;;;;;;1.5;100.0;102490;;;;
2023/02/15 05:15:00;;;;;;;3.2;3.1;;;;;;;1.4;100.0;102480;;;;
2023/02/15 05:16:01;;;;;;;3.2;3.1;;;;;;;1.4;100.0;102480;;;;
2023/02/15 05:17:02;;;;;;;3.2;3.1;;;;;;;1.4;100.0;102480;;;;
2023/02/15 05:18:01;;;;;;;3.2;3.1;;;;;;;1.4;100.0;102480;;;;
2023/02/15 05:19:00;;;;;;;3.2;3.1;;;;;;;1.4;100.0;102480;;;;
2023/02/15 05:20:00;;;;;;;3.2;3.1;;;;;;;1.4;100.0;102480;;;;
2023/02/15 05:21:00;;;;;;;3.2;3.1;;;;;;;1.4;100.0;102480;;;;
2023/02/15 05:22:00;;;;;;;3.2;3.1;;;;;;;1.4;100.0;102480;;;;
2023/02/15 05:23:00;;;;;;;3.2;3.1;;;;;;;1.4;100.0;102480;;;;
2023/02/15 05:24:00;;;;;;;3.2;3.1;;;;;;;1.4;100.0;102480;;;;
2023/02/15 05:29:00;;;;;;;3.2;3.1;;;;;;;1.3;100.0;102480;;;;
2023/02/15 05:30:00;;;;;;;2.9;2.8;;;;;;;1.3;100.0;102480;;;;
2023/02/15 05:31:10;;;;;;;2.9;2.8;;;;;;;1.4;100.0;102480;;;;
2023/02/15 05:32:00;;;;;;;2.9;2.8;;;;;;;1.4;100.0;102480;;;;
2023/02/15 05:33:00;;;;;;;2.9;2.8;;;;;;;1.4;100.0;102480;;;;
2023/02/15 05:34:00;;;;;;;2.9;2.8;;;;;;;1.4;100.0;102480;;;;
2023/02/15 05:35:00;;;;;;;2.9;2.8;;;;;;;1.5;100.0;102470;;;;
2023/02/15 05:36:02;;;;;;;2.9;2.8;;;;;;;1.5;100.0;102470;;;;
2023/02/15 05:37:00;;;;;;;2.9;2.8;;;;;;;1.5;100.0;102470;;;;
2023/02/15 05:38:00;;;;;;;2.9;2.8;;;;;;;1.5;100.0;102470;;;;
2023/02/15 05:39:00;;;;;;;2.9;2.8;;;;;;;1.4;100.0;102480;;;;
2023/02/15 05:40:00;;;;;;;2.9;2.8;;;;;;;1.4;100.0;102480;;;;
2023/02/15 05:41:00;;;;;;;2.9;2.8;;;;;;;1.4;100.0;102480;;;;
2023/02/15 05:42:00;;;;;;;2.9;2.8;;;;;;;1.4;100.0;102480;;;;
2023/02/15 05:43:00;;;;;;;2.9;2.8;;;;;;;1.4;100.0;102480;;;;
2023/02/15 05:44:00;;;;;;;2.9;2.8;;;;;;;1.4;100.0;102480;;;;
2023/02/15 05:45:00;;;;;;;2.9;2.8;;;;;;;1.4;100.0;102480;;;;
2023/02/15 05:46:01;;;;;;;2.9;2.8;;;;;;;1.4;100.0;102480;;;;
2023/02/15 05:47:02;;;;;;;2.9;2.8;;;;;;;1.4;100.0;102470;;;;
2023/02/15 05:48:00;;;;;;;2.9;2.8;;;;;;;1.4;100.0;102470;;;;
2023/02/15 05:49:00;;;;;;;2.9;2.8;;;;;;;1.3;100.0;102480;;;;
2023/02/15 05:50:00;;;;;;;3.0;2.9;;;;;;;1.3;100.0;102480;;;;
2023/02/15 05:51:02;;;;;;;3.0;2.9;;;;;;;1.3;100.0;102470;;;;
2023/02/15 05:52:00;;;;;;;3.0;2.9;;;;;;;1.3;100.0;102470;;;;
2023/02/15 05:53:00;;;;;;;3.0;2.9;;;;;;;1.3;100.0;102480;;;;
2023/02/15 05:54:00;;;;;;;3.0;2.9;;;;;;;1.3;100.0;102480;;;;
2023/02/15 05:55:02;;;;;;;3.0;2.9;;;;;;;1.3;100.0;102480;;;;
2023/02/15 05:56:02;;;;;;;3.0;2.9;;;;;;;1.3;100.0;102480;;;;
2023/02/15 05:57:00;;;;;;;3.0;2.9;;;;;;;1.3;100.0;102480;;;;
2023/02/15 05:58:00;;;;;;;3.0;2.9;;;;;;;1.3;100.0;102480;;;;
2023/02/15 05:59:00;;;;;;;3.0;2.9;;;;;;;1.3;100.0;102480;;;;
2023/02/15 06:00:00;;;;;;;3.0;2.9;;;;;;;1.3;100.0;102480;;;;
2023/02/15 06:01:07;;;;;;;3.0;2.9;;;;;;;1.3;100.0;102480;;;;
2023/02/15 06:02:00;;;;;;;3.0;2.9;;;;;;;1.3;100.0;102480;;;;
2023/02/15 06:03:00;;;;;;;3.0;2.9;;;;;;;1.3;100.0;102480;;;;
2023/02/15 06:04:00;;;;;;;3.0;2.9;;;;;;;1.3;100.0;102480;;;;
2023/02/15 06:05:00;;;;;;;3.0;2.9;;;;;;;1.2;100.0;102480;;;;
2023/02/15 06:06:02;;;;;;;3.0;2.9;;;;;;;1.2;100.0;102480;;;;
2023/02/15 06:07:00;;;;;;;3.0;2.9;;;;;;;1.2;100.0;102480;;;;
2023/02/15 06:08:00;;;;;;;3.0;2.9;;;;;;;1.2;100.0;102480;;;;
2023/02/15 06:09:00;;;;;;;3.0;2.9;;;;;;;1.2;100.0;102480;;;;
2023/02/15 06:10:00;;;;;;;3.1;3.0;;;;;;;1.2;100.0;102480;;;;
2023/02/15 06:11:00;;;;;;;3.1;3.0;;;;;;;1.2;100.0;102480;;;;
2023/02/15 06:12:00;;;;;;;3.1;3.0;;;;;;;1.2;100.0;102480;;;;
2023/02/15 06:13:00;;;;;;;3.1;3.0;;;;;;;1.2;100.0;102480;;;;
2023/02/15 06:14:00;;;;;;;3.1;3.0;;;;;;;1.2;100.0;102480;;;;
2023/02/15 06:15:00;;;;;;;3.1;3.0;;;;;;;1.2;100.0;102480;;;;
2023/02/15 06:16:01;;;;;;;3.1;3.0;;;;;;;1.2;100.0;102480;;;;
2023/02/15 06:17:00;;;;;;;3.1;3.0;;;;;;;1.2;100.0;102490;;;;
2023/02/15 06:18:00;;;;;;;3.1;3.0;;;;;;;1.2;100.0;102490;;;;
2023/02/15 06:19:01;;;;;;;3.1;3.0;;;;;;;1.1;100.0;102480;;;;
2023/02/15 06:20:00;;;;;;;3.1;3.0;;;;;;;1.1;100.0;102480;;;;
2023/02/15 06:21:00;;;;;;;3.1;3.0;;;;;;;1.2;100.0;102480;;;;
2023/02/15 06:22:00;;;;;;;3.1;3.0;;;;;;;1.2;100.0;102480;;;;
2023/02/15 06:23:00;;;;;;;3.1;3.0;;;;;;;1.1;100.0;102480;;;;
2023/02/15 06:24:00;;;;;;;3.1;3.0;;;;;;;1.1;100.0;102480;;;;
2023/02/15 06:25:00;;;;;;;3.1;3.0;;;;;;;1.1;100.0;102480;;;;
2023/02/15 06:26:01;;;;;;;3.1;3.0;;;;;;;1.1;100.0;102480;;;;
2023/02/15 06:27:00;;;;;;;3.1;3.0;;;;;;;1.1;100.0;102480;;;;
2023/02/15 06:28:00;;;;;;;3.1;3.0;;;;;;;1.1;100.0;102480;;;;
2023/02/15 06:29:00;;;;;;;3.1;3.0;;;;;;;1.1;100.0;102480;;;;
2023/02/15 06:30:00;;;;;;;3.2;3.1;;;;;;;1.1;100.0;102480;;;;
2023/02/15 06:31:00;;;;;;;3.2;3.1;;;;;;;1.2;100.0;102480;;;;
2023/02/15 06:32:00;;;;;;;3.2;3.1;;;;;;;1.2;100.0;102480;;;;
2023/02/15 06:33:00;;;;;;;3.2;3.1;;;;;;;1.1;100.0;102480;;;;
2023/02/15 06:34:00;;;;;;;3.2;3.1;;;;;;;1.1;100.0;102480;;;;
2023/02/15 06:35:00;;;;;;;3.2;3.1;;;;;;;1.1;100.0;102480;;;;
2023/02/15 06:36:01;;;;;;;3.2;3.1;;;;;;;1.1;100.0;102480;;;;
2023/02/15 06:37:00;;;;;;;3.2;3.1;;;;;;;1.2;100.0;102480;;;;
2023/02/15 06:38:00;;;;;;;3.2;3.1;;;;;;;1.2;100.0;102480;;;;
2023/02/15 06:39:01;;;;;;;3.2;3.1;;;;;;;1.0;100.0;102480;;;;
2023/02/15 06:40:03;;;;;;;3.2;3.1;;;;;;;1.0;100.0;102480;;;;
2023/02/15 06:41:00;;;;;;;3.2;3.1;;;;;;;1.0;100.0;102480;;;;
2023/02/15 06:42:00;;;;;;;3.2;3.1;;;;;;;1.0;100.0;102480;;;;
2023/02/15 06:43:00;;;;;;;3.2;3.1;;;;;;;1.0;100.0;102480;;;;
2023/02/15 06:44:00;;;;;;;3.2;3.1;;;;;;;1.0;100.0;102480;;;;
2023/02/15 06:45:00;;;;;;;3.2;3.1;;;;;;;1.0;100.0;102480;;;;
2023/02/15 06:46:01;;;;;;;3.2;3.1;;;;;;;1.0;100.0;102480;;;;
2023/02/15 06:47:00;;;;;;;3.2;3.1;;;;;;;1.1;100.0;102480;;;;
2023/02/15 06:48:00;;;;;;;3.2;3.1;;;;;;;1.1;100.0;102480;;;;
2023/02/15 06:49:00;;;;;;;3.2;3.1;;;;;;;1.1;100.0;102480;;;;
2023/02/15 06:50:00;;;;;;;3.0;2.9;;;;;;;1.1;100.0;102480;;;;
2023/02/15 06:51:00;;;;;;;3.0;2.9;;;;;;;1.1;100.0;102480;;;;
2023/02/15 06:52:00;;;;;;;3.0;2.9;;;;;;;1.1;100.0;102480;;;;
2023/02/15 06:53:00;;;;;;;3.0;2.9;;;;;;;1.1;100.0;102480;;;;
2023/02/15 06:54:00;;;;;;;3.0;2.9;;;;;;;1.1;100.0;102480;;;;
2023/02/15 06:55:00;;;;;;;3.0;2.9;;;;;;;1.0;100.0;102480;;;;
2023/02/15 06:56:03;;;;;;;3.0;2.9;;;;;;;1.0;100.0;102480;;;;
2023/02/15 06:57:00;;;;;;;3.0;2.9;;;;;;;1.1;100.0;102470;;;;
2023/02/15 06:58:00;;;;;;;3.0;2.9;;;;;;;1.1;100.0;102470;;;;
2023/02/15 06:59:00;;;;;;;3.0;2.9;;;;;;;0.9;100.0;102470;;;;
2023/02/15 07:00:01;;;;;;;3.0;2.9;;;;;;;0.9;100.0;102470;;;;
2023/02/15 07:01:00;;;;;;;3.0;2.9;;;;;;;0.9;100.0;102480;;;;
2023/02/15 07:02:00;;;;;;;3.0;2.9;;;;;;;0.9;100.0;102480;;;;
2023/02/15 07:03:01;;;;;;;3.0;2.9;;;;;;;1.0;100.0;102480;;;;
2023/02/15 07:04:00;;;;;;;3.0;2.9;;;;;;;1.0;100.0;102480;;;;
2023/02/15 07:05:00;;;;;;;3.0;2.9;;;;;;;1.1;100.0;102470;;;;
2023/02/15 07:06:02;;;;;;;3.0;2.9;;;;;;;1.1;100.0;102470;;;;
2023/02/15 07:07:00;;;;;;;3.0;2.9;;;;;;;1.0;100.0;102470;;;;
2023/02/15 07:08:00;;;;;;;3.0;2.9;;;;;;;1.0;100.0;102470;;;;
2023/02/15 07:09:00;;;;;;;3.0;2.9;;;;;;;1.1;100.0;102470;;;;
2023/02/15 07:10:00;;;;;;;3.6;3.5;;;;;;;1.1;100.0;102470;;;;
2023/02/15 07:13:00;;;;;;;3.6;3.5;;;;;;;1.1;100.0;102460;;;;
2023/02/15 07:14:00;;;;;;;3.6;3.5;;;;;;;1.1;100.0;102460;;;;
2023/02/15 07:15:00;;;;;;;3.6;3.5;;;;;;;1.1;100.0;102460;;;;
2023/02/15 07:16:00;;;;;;;3.6;3.5;;;;;;;1.1;100.0;102460;;;;
2023/02/15 07:17:00;;;;;;;3.6;3.5;;;;;;;1.1;100.0;102460;;;;
2023/02/15 07:18:00;;;;;;;3.6;3.5;;;;;;;1.1;100.0;102460;;;;
2023/02/15 07:19:00;;;;;;;3.6;3.5;;;;;;;1.1;100.0;102460;;;;
2023/02/15 07:20:00;;;;;;;3.6;3.5;;;;;;;1.1;100.0;102460;;;;
2023/02/15 07:21:00;;;;;;;3.6;3.5;;;;;;;1.1;100.0;102460;;;;
2023/02/15 07:22:00;;;;;;;3.6;3.5;;;;;;;1.1;100.0;102460;;;;
2023/02/15 07:23:00;;;;;;;3.6;3.5;;;;;;;1.0;100.0;102460;;;;
2023/02/15 07:24:00;;;;;;;3.6;3.5;;;;;;;1.0;100.0;102460;;;;
2023/02/15 07:25:00;;;;;;;3.6;3.5;;;;;;;0.9;100.0;102460;;;;
2023/02/15 07:26:01;;;;;;;3.6;3.5;;;;;;;0.9;100.0;102460;;;;
2023/02/15 07:27:00;;;;;;;3.6;3.5;;;;;;;0.9;100.0;102450;;;;
2023/02/15 07:28:01;;;;;;;3.6;3.5;;;;;;;0.9;100.0;102450;;;;
2023/02/15 07:29:00;;;;;;;3.6;3.5;;;;;;;0.9;100.0;102450;;;;
2023/02/15 07:30:00;;;;;;;3.1;3.0;;;;;;;0.9;100.0;102450;;;;
2023/02/15 07:31:02;;;;;;;3.1;3.0;;;;;;;0.9;100.0;102450;;;;
2023/02/15 07:32:00;;;;;;;3.1;3.0;;;;;;;0.9;100.0;102450;;;;
2023/02/15 07:34:00;;;;;;;3.1;3.0;;;;;;;0.9;100.0;102450;;;;
2023/02/15 07:35:00;;;;;;;3.1;3.0;;;;;;;0.9;100.0;102450;;;;
2023/02/15 07:36:02;;;;;;;3.1;3.0;;;;;;;0.9;100.0;102450;;;;
2023/02/15 07:37:00;;;;;;;3.1;3.0;;;;;;;1.0;100.0;102450;;;;
2023/02/15 07:38:01;;;;;;;3.1;3.0;;;;;;;1.0;100.0;102450;;;;
2023/02/15 07:39:00;;;;;;;3.1;3.0;;;;;;;1.0;100.0;102460;;;;